Time;durP1;ratioP1;P1;durP2;ratioP2;P2;SDS_P1;SDS_P2;PMS_P1;PMS_P2;Temp;Humidity;BMP_temperature;BMP_pressure;BME280_temperature;BME280_humidity;BME280_pressure;Samples;Min_cycle;Max_cycle;Signal;HPM_P1;HPM_P2
2021/07/31 00:00:50;;;;;;;6.03;5.43;;;18.50;99.90;18.20;96377.00;;;;5043948;28;20208;-73
2021/07/31 00:03:39;;;;;;;9.00;5.70;;;18.50;99.90;18.20;96366.00;;;;5038460;28;20262;-73
2021/07/31 00:06:42;;;;;;;8.23;6.13;;;18.50;99.90;18.20;96354.00;;;;5032310;28;20204;-73
2021/07/31 00:09:31;;;;;;;6.30;5.63;;;18.50;99.90;18.10;96364.00;;;;5043347;28;20217;-73
2021/07/31 00:12:20;;;;;;;7.93;5.47;;;18.50;99.90;18.10;96364.00;;;;5045807;28;20205;-73
2021/07/31 00:15:10;;;;;;;6.97;5.90;;;18.40;99.90;18.10;96356.00;;;;5045673;28;20204;-73
2021/07/31 00:17:59;;;;;;;7.23;6.53;;;18.40;99.90;18.10;96357.00;;;;5047107;28;20233;-73
2021/07/31 00:20:48;;;;;;;5.97;4.83;;;18.40;99.90;18.10;96364.00;;;;5045057;28;20387;-73
2021/07/31 00:23:38;;;;;;;6.00;5.33;;;18.40;99.90;17.90;96357.00;;;;5044998;28;20196;-73
2021/07/31 00:26:27;;;;;;;6.53;5.93;;;18.40;99.90;17.90;96359.00;;;;5034764;28;20212;-72
2021/07/31 00:29:16;;;;;;;6.57;5.97;;;18.40;99.90;17.80;96347.00;;;;5045297;28;20249;-72
2021/07/31 00:32:06;;;;;;;17.40;5.90;;;18.30;99.90;17.80;96335.00;;;;5045123;28;20209;-73
2021/07/31 00:34:55;;;;;;;7.37;6.43;;;18.30;99.90;17.90;96325.00;;;;5045364;28;20255;-73
2021/07/31 00:37:44;;;;;;;5.77;5.17;;;18.20;99.90;17.90;96331.00;;;;5045211;28;20235;-72
2021/07/31 00:40:35;;;;;;;6.60;5.37;;;18.20;99.90;17.70;96333.00;;;;5039424;28;20213;-73
2021/07/31 00:43:24;;;;;;;6.13;5.30;;;18.20;99.90;17.70;96336.00;;;;5040178;28;20216;-72
2021/07/31 00:46:13;;;;;;;7.30;6.47;;;18.20;99.90;17.70;96344.00;;;;5044836;28;20213;-72
2021/07/31 00:49:02;;;;;;;7.67;6.83;;;18.10;99.90;17.70;96324.00;;;;5035175;28;20264;-72
2021/07/31 00:51:51;;;;;;;6.80;6.20;;;18.10;99.90;17.80;96322.00;;;;5044918;28;20787;-71
2021/07/31 00:54:40;;;;;;;7.77;6.97;;;18.10;99.90;17.90;96311.00;;;;5044242;28;20270;-71
2021/07/31 00:57:31;;;;;;;6.57;5.90;;;18.10;99.90;17.80;96301.00;;;;5045664;28;20235;-72
2021/07/31 01:00:20;;;;;;;7.67;6.37;;;18.10;99.90;17.90;96297.00;;;;5044944;28;20200;-72
2021/07/31 01:03:09;;;;;;;6.23;5.63;;;18.20;99.90;17.90;96303.00;;;;5044321;28;20201;-72
2021/07/31 01:05:59;;;;;;;7.83;6.73;;;18.10;99.90;17.80;96293.00;;;;5044132;28;20695;-72
2021/07/31 01:08:48;;;;;;;6.77;5.73;;;18.20;99.90;17.60;96287.00;;;;5044792;28;20232;-72
2021/07/31 01:11:37;;;;;;;6.47;5.73;;;18.20;99.90;17.60;96281.00;;;;5044810;28;20209;-72
2021/07/31 01:14:27;;;;;;;6.53;5.90;;;18.10;99.90;17.60;96276.00;;;;5044192;28;20227;-72
2021/07/31 01:17:17;;;;;;;5.57;4.93;;;18.00;99.90;17.60;96281.00;;;;5044871;28;20231;-71
2021/07/31 01:20:08;;;;;;;7.77;5.97;;;18.00;99.90;17.50;96275.00;;;;5044945;28;20589;-73
2021/07/31 01:22:58;;;;;;;7.00;5.90;;;17.90;99.90;17.60;96285.00;;;;5043903;28;20219;-71
2021/07/31 01:25:47;;;;;;;9.00;5.53;;;17.90;99.90;17.50;96288.00;;;;5044208;28;20216;-73
2021/07/31 01:28:36;;;;;;;14.37;6.70;;;17.90;99.90;17.50;96281.00;;;;5045758;28;20232;-71
2021/07/31 01:31:25;;;;;;;5.67;5.17;;;17.90;99.90;17.50;96287.00;;;;5040995;28;20212;-73
2021/07/31 01:34:14;;;;;;;5.13;4.63;;;17.90;99.90;17.50;96293.00;;;;5043090;28;20236;-72
2021/07/31 01:37:03;;;;;;;8.17;5.10;;;17.90;99.90;17.60;96304.00;;;;5033269;28;20217;-73
2021/07/31 01:39:53;;;;;;;6.70;5.10;;;17.90;99.90;17.50;96313.00;;;;5048850;28;20252;-73
2021/07/31 01:42:43;;;;;;;6.67;5.37;;;17.90;99.90;17.50;96318.00;;;;5049351;28;20699;-72
2021/07/31 01:45:32;;;;;;;6.73;5.03;;;17.90;99.90;17.40;96316.00;;;;5049666;28;20212;-73
2021/07/31 01:48:21;;;;;;;6.60;6.00;;;17.80;99.90;17.40;96333.00;;;;5050188;28;20233;-72
2021/07/31 01:51:10;;;;;;;8.03;5.13;;;17.80;99.90;17.40;96319.00;;;;5049868;28;20654;-73
2021/07/31 01:53:59;;;;;;;6.97;5.27;;;17.80;99.90;17.40;96314.00;;;;5037947;28;20224;-73
2021/07/31 01:56:49;;;;;;;7.20;5.77;;;17.80;99.90;17.40;96331.00;;;;5048298;28;20208;-71
2021/07/31 01:59:38;;;;;;;5.73;5.13;;;17.80;99.90;17.30;96340.00;;;;5049369;28;20622;-70
2021/07/31 02:02:29;;;;;;;7.87;5.50;;;17.70;99.90;17.40;96352.00;;;;5048924;28;20590;-72
2021/07/31 02:05:18;;;;;;;9.30;5.80;;;17.70;99.90;17.50;96355.00;;;;5045301;28;20197;-72
2021/07/31 02:08:07;;;;;;;6.53;5.23;;;17.80;99.90;17.50;96345.00;;;;5043673;28;20269;-73
2021/07/31 02:10:55;;;;;;;7.70;4.70;;;17.80;99.90;17.50;96347.00;;;;5047425;28;20680;-73
2021/07/31 02:13:46;;;;;;;6.13;5.27;;;17.80;99.90;17.50;96337.00;;;;5048185;28;20201;-73
2021/07/31 02:16:35;;;;;;;6.70;5.97;;;17.80;99.90;17.50;96345.00;;;;5046512;28;20270;-72
2021/07/31 02:19:24;;;;;;;6.53;5.73;;;17.80;99.90;17.60;96349.00;;;;5045838;28;20209;-73
2021/07/31 02:22:13;;;;;;;6.37;5.77;;;17.80;99.90;17.70;96341.00;;;;5044814;28;20200;-73
2021/07/31 02:25:03;;;;;;;9.77;6.43;;;17.80;99.90;17.70;96331.00;;;;5048275;28;20227;-72
2021/07/31 02:27:52;;;;;;;6.93;5.40;;;17.90;99.90;17.60;96336.00;;;;5044980;28;20243;-73
2021/07/31 02:30:42;;;;;;;8.23;5.83;;;17.90;99.90;17.50;96336.00;;;;5048035;28;20255;-73
2021/07/31 02:33:31;;;;;;;7.27;5.50;;;17.90;99.90;17.50;96330.00;;;;5047678;28;20196;-73
2021/07/31 02:36:20;;;;;;;6.60;6.00;;;17.90;99.90;17.60;96328.00;;;;5045969;28;20215;-72
2021/07/31 02:39:09;;;;;;;7.77;7.07;;;17.90;99.90;17.70;96327.00;;;;5047819;28;20317;-72
2021/07/31 02:41:57;;;;;;;5.77;5.20;;;17.90;99.90;17.50;96328.00;;;;5047241;28;20209;-72
2021/07/31 02:44:46;;;;;;;6.27;5.63;;;17.90;99.90;17.50;96315.00;;;;5047198;28;20203;-72
2021/07/31 02:47:37;;;;;;;7.40;5.77;;;17.90;99.90;17.50;96334.00;;;;5046920;28;20705;-72
2021/07/31 02:50:27;;;;;;;7.10;6.43;;;17.90;99.90;17.60;96340.00;;;;5043139;28;20200;-72
2021/07/31 02:53:16;;;;;;;5.90;5.30;;;17.90;99.90;17.60;96331.00;;;;5034471;28;20211;-72
2021/07/31 02:56:06;;;;;;;6.43;5.07;;;17.90;99.90;17.50;96339.00;;;;5034140;28;20225;-72
2021/07/31 02:58:55;;;;;;;6.50;4.77;;;17.90;99.90;17.50;96331.00;;;;5038348;28;20228;-73
2021/07/31 03:01:44;;;;;;;6.67;5.07;;;17.90;99.90;17.60;96326.00;;;;5041365;28;20205;-72
2021/07/31 03:04:35;;;;;;;5.37;4.87;;;17.90;99.90;17.70;96327.00;;;;5027331;28;20208;-72
2021/07/31 03:07:24;;;;;;;6.77;4.93;;;17.90;99.90;17.60;96323.00;;;;5041535;28;20224;-72
2021/07/31 03:10:13;;;;;;;5.77;5.17;;;17.90;99.90;17.60;96319.00;;;;5047544;28;20208;-72
2021/07/31 03:13:02;;;;;;;6.57;5.10;;;17.90;99.90;17.60;96326.00;;;;5046523;28;20205;-74
2021/07/31 03:15:53;;;;;;;6.17;4.70;;;17.90;99.90;17.60;96328.00;;;;5048156;28;20228;-72
2021/07/31 03:18:42;;;;;;;5.97;4.80;;;17.90;99.90;17.60;96328.00;;;;5034644;28;20232;-72
2021/07/31 03:21:32;;;;;;;6.03;5.43;;;17.90;99.90;17.70;96325.00;;;;5038349;28;20211;-72
2021/07/31 03:24:21;;;;;;;6.97;4.83;;;17.90;99.90;17.60;96325.00;;;;5046750;28;20223;-72
2021/07/31 03:27:10;;;;;;;8.40;4.40;;;17.90;99.90;17.60;96326.00;;;;5030440;28;20603;-72
2021/07/31 03:29:59;;;;;;;4.77;4.27;;;17.90;99.90;17.50;96323.00;;;;5039711;28;20212;-72
2021/07/31 03:32:48;;;;;;;6.23;4.50;;;17.90;99.90;17.50;96321.00;;;;5047367;28;20578;-72
2021/07/31 03:35:37;;;;;;;5.27;4.77;;;17.80;99.90;17.40;96318.00;;;;5047431;28;20587;-72
2021/07/31 03:38:28;;;;;;;5.00;4.50;;;17.80;99.90;17.50;96324.00;;;;5047681;28;20220;-72
2021/07/31 03:41:17;;;;;;;5.07;4.63;;;17.80;99.90;17.50;96331.00;;;;5046884;28;20215;-72
2021/07/31 03:44:06;;;;;;;5.07;4.30;;;17.80;99.90;17.40;96327.00;;;;5046670;28;20209;-72
2021/07/31 03:46:55;;;;;;;4.80;4.20;;;17.80;99.90;17.40;96335.00;;;;5047069;28;20557;-72
2021/07/31 03:49:44;;;;;;;5.13;4.37;;;17.80;99.90;17.30;96327.00;;;;5033934;28;20221;-72
2021/07/31 03:52:33;;;;;;;4.67;4.27;;;17.70;99.90;17.30;96328.00;;;;5057964;28;20571;-72
2021/07/31 03:55:24;;;;;;;6.47;3.97;;;17.70;99.90;17.40;96328.00;;;;5043369;28;20620;-72
2021/07/31 03:58:13;;;;;;;6.70;3.77;;;17.70;99.90;17.50;96329.00;;;;5030378;28;20225;-73
2021/07/31 04:01:02;;;;;;;5.00;4.50;;;17.70;99.90;17.50;96325.00;;;;5040597;28;20197;-72
2021/07/31 04:03:51;;;;;;;6.93;5.00;;;17.80;99.90;17.60;96314.00;;;;5047012;28;20215;-72
2021/07/31 04:06:40;;;;;;;8.33;5.57;;;17.80;99.90;17.70;96316.00;;;;5046979;28;20717;-72
2021/07/31 04:09:29;;;;;;;6.50;4.67;;;17.90;99.90;17.70;96316.00;;;;5046161;28;20672;-72
2021/07/31 04:12:19;;;;;;;5.30;4.80;;;17.90;99.90;17.70;96301.00;;;;5060053;28;20211;-72
2021/07/31 04:15:10;;;;;;;6.43;4.80;;;17.90;99.90;17.70;96295.00;;;;5035374;28;20605;-73
2021/07/31 04:17:59;;;;;;;5.67;3.67;;;17.90;99.90;17.50;96300.00;;;;5046833;28;20224;-72
2021/07/31 04:20:48;;;;;;;8.73;4.10;;;17.90;99.90;17.60;96307.00;;;;5033279;28;20683;-72
2021/07/31 04:23:37;;;;;;;7.30;4.50;;;17.90;99.90;17.60;96299.00;;;;5046447;28;20200;-72
2021/07/31 04:26:26;;;;;;;5.27;4.70;;;17.90;99.90;17.70;96298.00;;;;5036155;28;20477;-72
2021/07/31 04:29:16;;;;;;;4.57;4.17;;;17.90;99.90;17.70;96298.00;;;;5046047;28;20204;-71
2021/07/31 04:32:06;;;;;;;9.27;3.90;;;17.90;99.90;17.70;96285.00;;;;5045430;28;20219;-72
2021/07/31 04:34:55;;;;;;;4.80;4.30;;;17.90;99.90;17.60;96283.00;;;;5046380;28;20262;-72
2021/07/31 04:37:44;;;;;;;3.97;3.53;;;17.90;99.90;17.50;96293.00;;;;5035620;28;20235;-72
2021/07/31 04:40:34;;;;;;;4.27;3.53;;;17.90;99.90;17.30;96295.00;;;;5044784;28;20205;-71
2021/07/31 04:43:23;;;;;;;5.03;4.57;;;17.80;99.90;17.30;96307.00;;;;5032708;28;20583;-70
2021/07/31 04:46:13;;;;;;;7.47;3.60;;;17.80;99.90;17.30;96313.00;;;;5046030;28;20204;-71
2021/07/31 04:49:02;;;;;;;4.53;4.13;;;17.70;99.90;17.30;96314.00;;;;5036260;28;20715;-70
2021/07/31 04:51:51;;;;;;;6.70;5.13;;;17.70;99.90;17.50;96327.00;;;;5046854;28;20590;-70
2021/07/31 04:54:41;;;;;;;6.23;4.53;;;17.70;99.90;17.60;96329.00;;;;5042920;28;20211;-70
2021/07/31 04:57:30;;;;;;;7.43;4.83;;;17.80;99.90;17.70;96321.00;;;;5044112;28;20239;-70
2021/07/31 05:00:19;;;;;;;6.67;5.23;;;17.80;99.90;17.90;96328.00;;;;5046609;28;20219;-70
2021/07/31 05:03:09;;;;;;;4.70;4.20;;;17.90;99.90;17.90;96335.00;;;;5045344;28;20205;-70
2021/07/31 05:05:58;;;;;;;4.50;4.10;;;18.00;99.90;17.90;96337.00;;;;5045936;28;20255;-70
2021/07/31 05:08:47;;;;;;;6.60;3.83;;;18.10;99.90;17.90;96340.00;;;;5046381;28;20224;-70
2021/07/31 05:11:36;;;;;;;5.40;4.40;;;18.10;99.90;18.00;96338.00;;;;5038580;28;20216;-71
2021/07/31 05:14:26;;;;;;;4.40;4.00;;;18.20;99.90;18.00;96349.00;;;;5029315;28;20212;-71
2021/07/31 05:17:15;;;;;;;6.23;3.83;;;18.30;99.90;18.10;96352.00;;;;5042582;28;20236;-71
2021/07/31 05:20:06;;;;;;;7.00;4.10;;;18.30;99.90;18.20;96346.00;;;;5040222;28;20219;-71
2021/07/31 05:22:55;;;;;;;5.30;4.37;;;18.30;99.90;18.20;96340.00;;;;5049976;28;20208;-70
2021/07/31 05:25:45;;;;;;;5.20;4.17;;;18.40;99.90;18.00;96345.00;;;;5049510;28;20200;-71
2021/07/31 05:28:34;;;;;;;4.40;4.00;;;18.40;99.90;18.00;96336.00;;;;5050032;28;20227;-71
2021/07/31 05:31:23;;;;;;;4.03;3.63;;;18.30;99.90;18.00;96344.00;;;;5050286;28;20208;-71
2021/07/31 05:34:12;;;;;;;8.03;4.87;;;18.30;99.90;18.00;96343.00;;;;5049210;28;20208;-71
2021/07/31 05:37:03;;;;;;;3.60;3.30;;;18.30;99.90;18.10;96337.00;;;;5046346;28;20232;-71
2021/07/31 05:39:52;;;;;;;4.20;3.80;;;18.30;99.90;18.20;96336.00;;;;5029648;28;20277;-71
2021/07/31 05:42:42;;;;;;;4.37;3.97;;;18.40;99.90;18.20;96334.00;;;;5038091;28;20257;-71
2021/07/31 05:45:31;;;;;;;4.53;4.00;;;18.40;99.90;18.20;96330.00;;;;5049668;28;20209;-71
2021/07/31 05:48:20;;;;;;;5.30;4.40;;;18.40;99.90;18.30;96318.00;;;;5045994;28;20386;-71
2021/07/31 05:51:12;;;;;;;4.87;3.83;;;18.40;99.90;18.60;96322.00;;;;5042834;28;20208;-71
2021/07/31 05:54:03;;;;;;;4.60;4.20;;;18.60;99.90;18.70;96321.00;;;;5049122;28;20204;-71
2021/07/31 05:56:52;;;;;;;5.40;3.53;;;18.70;99.90;18.70;96325.00;;;;5035001;28;20223;-71
2021/07/31 05:59:40;;;;;;;8.93;3.43;;;18.80;99.90;18.80;96324.00;;;;5045236;28;20216;-71
2021/07/31 06:02:29;;;;;;;4.00;3.70;;;18.80;99.90;18.90;96303.00;;;;5042927;28;20597;-71
2021/07/31 06:05:18;;;;;;;4.47;4.03;;;18.90;99.90;18.90;96302.00;;;;5047678;28;20259;-71
2021/07/31 06:08:07;;;;;;;4.17;3.77;;;19.00;99.90;18.80;96305.00;;;;5048558;28;20609;-72
2021/07/31 06:11:01;;;;;;;4.10;3.70;;;19.00;99.90;18.70;96313.00;;;;5048964;28;20596;-72
2021/07/31 06:13:50;;;;;;;3.43;2.97;;;19.00;99.90;18.50;96310.00;;;;5048071;28;20204;-72
2021/07/31 06:16:39;;;;;;;4.27;3.87;;;18.90;99.90;18.50;96316.00;;;;5048836;28;20248;-71
2021/07/31 06:19:29;;;;;;;5.90;4.00;;;18.90;99.90;18.70;96313.00;;;;5048606;28;20215;-72
2021/07/31 06:22:18;;;;;;;4.70;4.20;;;19.00;99.90;18.90;96312.00;;;;5047424;28;20463;-72
2021/07/31 06:25:09;;;;;;;4.53;3.87;;;19.00;99.90;19.10;96323.00;;;;5048282;28;20584;-73
2021/07/31 06:27:59;;;;;;;4.30;3.90;;;19.20;99.90;18.90;96302.00;;;;5045682;28;20228;-72
2021/07/31 06:30:48;;;;;;;3.80;3.50;;;19.20;99.90;19.00;96316.00;;;;5047085;28;20205;-72
2021/07/31 06:33:37;;;;;;;5.60;4.87;;;19.20;99.90;19.10;96318.00;;;;5046873;28;20222;-72
2021/07/31 06:36:26;;;;;;;5.13;4.47;;;19.20;99.90;19.10;96330.00;;;;5047016;28;20265;-72
2021/07/31 06:39:15;;;;;;;5.47;4.40;;;19.30;99.90;19.20;96328.00;;;;5047760;28;20201;-73
2021/07/31 06:42:05;;;;;;;4.23;3.83;;;19.30;99.90;19.40;96315.00;;;;5049060;28;20200;-73
2021/07/31 06:44:55;;;;;;;4.87;4.30;;;19.40;99.90;19.70;96312.00;;;;5049016;28;20683;-73
2021/07/31 06:47:44;;;;;;;5.27;4.47;;;19.60;99.90;19.80;96310.00;;;;5047515;28;20229;-71
2021/07/31 06:50:33;;;;;;;4.80;4.40;;;19.70;99.90;20.00;96328.00;;;;5037686;28;20216;-72
2021/07/31 06:53:24;;;;;;;5.63;4.47;;;19.90;99.90;20.00;96327.00;;;;5047900;28;20659;-71
2021/07/31 06:56:13;;;;;;;6.43;4.53;;;20.10;99.90;20.20;96332.00;;;;5033435;28;20229;-70
2021/07/31 06:59:02;;;;;;;6.47;5.07;;;20.20;99.90;20.50;96335.00;;;;5039167;28;20220;-70
2021/07/31 07:01:52;;;;;;;5.73;5.10;;;20.30;99.90;20.70;96341.00;;;;5048502;28;20266;-68
2021/07/31 07:04:41;;;;;;;5.33;4.83;;;20.50;99.90;21.00;96329.00;;;;5047852;28;20208;-72
2021/07/31 07:07:30;;;;;;;9.63;5.13;;;21.00;99.90;21.20;96339.00;;;;5048029;28;20231;-70
2021/07/31 07:10:19;;;;;;;5.30;4.50;;;20.90;99.90;21.30;96339.00;;;;5046866;28;20196;-69
2021/07/31 07:13:08;;;;;;;6.20;4.77;;;21.20;99.90;21.40;96337.00;;;;5044391;28;20205;-73
2021/07/31 07:15:57;;;;;;;5.50;3.90;;;21.40;99.90;21.30;96342.00;;;;5047312;28;20200;-74
2021/07/31 07:18:47;;;;;;;5.07;4.57;;;21.50;99.90;21.60;96331.00;;;;5042410;28;20228;-75
2021/07/31 07:21:36;;;;;;;6.10;5.13;;;21.60;99.90;22.00;96325.00;;;;5047886;28;20205;-71
2021/07/31 07:24:25;;;;;;;6.03;4.90;;;21.70;99.90;22.30;96312.00;;;;5038159;28;20797;-74
2021/07/31 07:27:14;;;;;;;4.70;4.30;;;21.90;99.90;22.60;96321.00;;;;5048040;28;20228;-71
2021/07/31 07:30:03;;;;;;;6.07;4.77;;;22.20;99.90;22.70;96325.00;;;;5048090;28;20692;-67
2021/07/31 07:32:53;;;;;;;4.57;3.97;;;22.40;99.90;22.90;96327.00;;;;5046937;28;20593;-70
2021/07/31 07:35:43;;;;;;;4.73;4.33;;;22.60;99.90;23.00;96319.00;;;;5032911;28;20723;-68
2021/07/31 07:38:32;;;;;;;5.73;4.97;;;22.70;99.90;23.20;96324.00;;;;5036902;28;20715;-68
2021/07/31 07:41:21;;;;;;;4.77;4.07;;;22.90;99.90;23.40;96322.00;;;;5035136;28;20209;-69
2021/07/31 07:44:10;;;;;;;5.87;4.80;;;23.10;99.90;23.50;96324.00;;;;5042553;28;20203;-75
2021/07/31 07:46:59;;;;;;;6.33;4.27;;;23.20;99.90;23.60;96329.00;;;;5043905;28;20209;-73
2021/07/31 07:49:48;;;;;;;6.90;4.17;;;23.40;99.90;23.80;96323.00;;;;5043046;28;20265;-73
2021/07/31 07:52:38;;;;;;;4.13;3.73;;;23.50;99.90;23.70;96320.00;;;;5042870;28;20222;-75
2021/07/31 07:55:27;;;;;;;4.07;3.63;;;23.60;99.90;24.10;96321.00;;;;5044853;28;20589;-74
2021/07/31 07:58:16;;;;;;;4.73;4.23;;;23.80;99.90;24.20;96332.00;;;;5045729;28;21262;-74
2021/07/31 08:01:05;;;;;;;5.27;3.80;;;24.00;99.90;24.30;96327.00;;;;5045446;28;20208;-75
2021/07/31 08:03:54;;;;;;;4.10;3.70;;;24.10;99.90;24.40;96314.00;;;;5045004;28;20208;-74
2021/07/31 08:06:43;;;;;;;4.70;4.27;;;24.20;99.90;24.50;96311.00;;;;5046528;28;20212;-74
2021/07/31 08:09:37;;;;;;;4.40;4.00;;;24.30;99.90;24.70;96319.00;;;;5045859;28;20219;-74
2021/07/31 08:12:26;;;;;;;4.73;3.70;;;24.40;99.90;24.80;96315.00;;;;5029941;28;20215;-74
2021/07/31 08:15:15;;;;;;;4.17;3.57;;;24.60;99.90;25.10;96309.00;;;;5037476;28;20216;-71
2021/07/31 08:18:03;;;;;;;5.53;4.63;;;24.70;99.90;25.20;96318.00;;;;5046412;28;20231;-71
2021/07/31 08:20:52;;;;;;;4.00;3.50;;;24.90;99.90;25.30;96332.00;;;;5045500;28;20620;-68
2021/07/31 08:23:43;;;;;;;3.90;3.53;;;25.10;99.90;25.30;96333.00;;;;5044530;28;20218;-73
2021/07/31 08:26:34;;;;;;;7.30;3.23;;;25.10;99.90;25.40;96345.00;;;;5037248;28;20683;-70
2021/07/31 08:29:22;;;;;;;3.60;3.30;;;25.20;99.90;25.20;96333.00;;;;5034454;28;20203;-71
2021/07/31 08:32:11;;;;;;;6.37;3.40;;;25.20;99.90;25.30;96335.00;;;;5045674;28;20225;-71
2021/07/31 08:35:01;;;;;;;3.40;3.10;;;25.20;99.90;25.80;96295.00;;;;5042861;28;20211;-71
2021/07/31 08:37:49;;;;;;;4.17;2.93;;;25.00;99.90;26.30;96300.00;;;;5042978;28;20267;-70
2021/07/31 08:40:38;;;;;;;5.97;3.17;;;25.60;99.90;26.50;96292.00;;;;5040833;28;20239;-72
2021/07/31 08:43:30;;;;;;;4.13;3.83;;;26.00;99.90;26.10;96310.00;;;;5032946;28;20578;-70
2021/07/31 08:46:19;;;;;;;2.53;2.33;;;26.00;99.90;26.20;96305.00;;;;5040064;28;20208;-74
2021/07/31 08:49:08;;;;;;;2.77;2.57;;;26.00;99.90;26.70;96299.00;;;;5044968;28;20216;-71
2021/07/31 08:51:59;;;;;;;3.10;2.90;;;26.20;99.90;27.00;96307.00;;;;5042758;28;20208;-75
2021/07/31 08:54:48;;;;;;;2.97;2.60;;;26.40;99.90;27.30;96305.00;;;;5041303;28;20211;-75
2021/07/31 08:57:36;;;;;;;2.60;2.40;;;26.70;99.90;27.30;96314.00;;;;5034768;28;20292;-75
2021/07/31 09:00:27;;;;;;;2.13;2.03;;;26.90;99.90;27.10;96315.00;;;;5043831;28;20296;-76
2021/07/31 09:03:17;;;;;;;2.50;2.30;;;27.10;99.90;26.30;96332.00;;;;5042265;28;20225;-75
2021/07/31 09:06:06;;;;;;;2.13;2.00;;;27.00;99.90;25.80;96348.00;;;;5043483;28;20212;-74
2021/07/31 09:08:56;;;;;;;2.47;2.27;;;26.60;97.80;25.50;96358.00;;;;5033811;28;20247;-74
2021/07/31 09:12:00;;;;;;;2.93;2.10;;;26.30;98.80;25.50;96368.00;;;;5037407;28;20206;-72
2021/07/31 09:14:49;;;;;;;3.63;2.07;;;26.00;98.30;25.40;96373.00;;;;5036929;28;20226;-72
2021/07/31 09:17:39;;;;;;;2.53;2.33;;;25.80;99.90;25.70;96381.00;;;;5037624;28;20240;-76
2021/07/31 09:20:28;;;;;;;2.97;2.63;;;25.70;99.90;25.60;96388.00;;;;5046308;28;20201;-73
2021/07/31 09:23:17;;;;;;;3.10;2.60;;;25.70;99.90;25.50;96394.00;;;;5046226;28;20208;-71
2021/07/31 09:26:06;;;;;;;2.50;2.30;;;25.60;99.90;25.40;96391.00;;;;5039463;28;20721;-72
2021/07/31 09:29:03;;;;;;;3.13;2.57;;;25.60;99.90;25.00;96404.00;;;;5046577;28;20226;-74
2021/07/31 09:31:55;;;;;;;3.13;2.83;;;25.50;99.90;24.60;96393.00;;;;5045609;28;20216;-74
2021/07/31 09:34:48;;;;;;;4.20;3.27;;;25.20;99.90;24.60;96400.00;;;;5045395;28;20218;-75
2021/07/31 09:37:48;;;;;;;2.50;2.30;;;25.00;99.90;24.50;96402.00;;;;5046178;28;20227;-75
2021/07/31 09:40:37;;;;;;;3.03;2.73;;;24.90;99.90;24.30;96399.00;;;;5040305;28;20219;-73
2021/07/31 09:43:28;;;;;;;3.10;2.80;;;24.80;99.90;24.30;96391.00;;;;5041909;28;20209;-73
2021/07/31 09:46:33;;;;;;;3.63;2.60;;;24.70;99.90;24.20;96392.00;;;;5030675;28;20216;-71
2021/07/31 09:49:23;;;;;;;3.10;2.80;;;24.60;99.90;24.20;96388.00;;;;5043960;28;20201;-73
2021/07/31 09:52:22;;;;;;;3.17;2.87;;;24.50;99.90;24.30;96389.00;;;;5044858;28;20212;-72
2021/07/31 09:55:11;;;;;;;3.93;2.97;;;24.50;99.90;24.80;96390.00;;;;5039685;28;20205;-73
2021/07/31 09:58:00;;;;;;;2.60;2.40;;;24.60;99.90;24.80;96389.00;;;;5042428;28;20233;-70
2021/07/31 10:00:52;;;;;;;3.33;2.87;;;24.70;99.90;24.60;96392.00;;;;5050683;28;20283;-70
2021/07/31 10:03:42;;;;;;;2.90;2.10;;;24.70;99.90;24.40;96398.00;;;;5048274;28;20205;-72
2021/07/31 10:06:32;;;;;;;3.43;2.20;;;24.70;99.90;24.20;96394.00;;;;5047474;28;20209;-73
2021/07/31 10:09:23;;;;;;;3.50;2.13;;;24.60;99.90;24.40;96393.00;;;;5049046;28;20221;-73
2021/07/31 10:12:14;;;;;;;2.77;2.27;;;24.50;99.90;24.30;96385.00;;;;5050217;28;20228;-74
2021/07/31 10:15:04;;;;;;;3.23;1.80;;;24.50;99.90;24.60;96396.00;;;;5047579;28;20687;-74
2021/07/31 10:17:54;;;;;;;2.33;2.13;;;24.50;99.90;24.70;96390.00;;;;5045452;28;20241;-74
2021/07/31 10:20:43;;;;;;;2.13;2.00;;;24.60;99.90;24.80;96390.00;;;;5049530;28;20206;-74
2021/07/31 10:24:06;;;;;;;2.50;2.03;;;24.60;99.90;24.60;96391.00;;;;5047646;28;20726;-72
2021/07/31 10:27:30;;;;;;;2.67;2.47;;;24.70;99.90;24.60;96386.00;;;;4962203;28;20207;-72
2021/07/31 10:30:28;;;;;;;3.17;2.03;;;24.70;99.90;24.40;96387.00;;;;4893061;29;20206;-74
2021/07/31 10:33:45;;;;;;;2.30;2.10;;;24.60;99.90;24.20;96392.00;;;;4981413;28;20215;-72
2021/07/31 10:36:35;;;;;;;2.67;2.47;;;24.50;99.90;23.80;96386.00;;;;5040039;28;20213;-74
2021/07/31 10:39:41;;;;;;;2.03;1.80;;;24.30;99.90;23.70;96386.00;;;;5030570;28;20221;-74
2021/07/31 10:43:03;;;;;;;2.60;2.30;;;24.10;99.90;23.50;96382.00;;;;5030766;28;20288;-74
2021/07/31 10:46:23;;;;;;;2.27;2.07;;;23.90;99.90;23.30;96378.00;;;;5038162;28;20250;-74
2021/07/31 10:49:35;;;;;;;6.10;3.10;;;23.80;99.90;23.40;96370.00;;;;5034500;28;20213;-74
2021/07/31 10:52:57;;;;;;;3.77;2.10;;;23.60;99.90;23.30;96367.00;;;;5030546;28;20214;-74
2021/07/31 10:56:03;;;;;;;4.37;2.13;;;23.50;99.90;23.10;96350.00;;;;5046335;28;20259;-74
2021/07/31 10:59:20;;;;;;;3.03;2.13;;;23.50;99.90;22.80;96350.00;;;;5030327;28;20607;-74
2021/07/31 11:02:37;;;;;;;2.07;1.87;;;23.30;99.90;22.80;96354.00;;;;5027450;28;20213;-73
2021/07/31 11:05:28;;;;;;;5.47;2.10;;;23.20;99.90;22.80;96378.00;;;;5040338;28;20254;-72
2021/07/31 11:08:17;;;;;;;2.00;1.60;;;23.10;99.90;22.80;96397.00;;;;5029813;28;20684;-72
2021/07/31 11:11:26;;;;;;;2.77;1.90;;;23.00;99.90;22.60;96398.00;;;;5044323;28;20201;-73
2021/07/31 11:14:14;;;;;;;1.83;1.50;;;22.90;99.90;22.70;96385.00;;;;5032327;28;20585;-73
2021/07/31 11:17:17;;;;;;;2.83;1.90;;;22.80;99.90;22.70;96375.00;;;;5050098;28;20281;-73
2021/07/31 11:20:35;;;;;;;3.43;2.10;;;22.90;99.90;22.90;96387.00;;;;5035710;28;20299;-73
2021/07/31 11:23:25;;;;;;;2.43;1.90;;;22.90;99.90;23.00;96388.00;;;;5026969;28;20699;-73
2021/07/31 11:26:15;;;;;;;1.60;1.50;;;23.00;99.90;23.00;96379.00;;;;5036420;28;20618;-73
2021/07/31 11:29:11;;;;;;;1.90;1.80;;;23.00;99.90;23.20;96383.00;;;;5049655;28;20221;-73
2021/07/31 11:32:11;;;;;;;4.27;1.97;;;23.10;99.90;23.40;96372.00;;;;5047537;28;20200;-73
2021/07/31 11:35:01;;;;;;;3.37;2.40;;;23.20;99.90;23.70;96370.00;;;;5042040;28;20692;-73
2021/07/31 11:37:51;;;;;;;2.10;1.90;;;23.30;99.90;23.80;96366.00;;;;5028441;28;20241;-72
2021/07/31 11:40:58;;;;;;;2.13;1.97;;;23.50;99.90;24.20;96362.00;;;;5048583;28;20208;-72
2021/07/31 11:43:51;;;;;;;3.70;2.30;;;23.80;99.90;24.70;96356.00;;;;5031238;28;20220;-74
2021/07/31 11:46:45;;;;;;;1.90;1.70;;;24.10;99.90;25.20;96337.00;;;;5031789;28;20289;-74
2021/07/31 11:49:36;;;;;;;3.43;2.03;;;24.40;99.90;25.80;96330.00;;;;5035850;28;20211;-73
2021/07/31 11:52:28;;;;;;;2.70;2.13;;;24.90;99.90;26.40;96345.00;;;;5049649;28;20205;-74
2021/07/31 11:55:26;;;;;;;2.07;1.87;;;25.30;99.90;26.70;96312.00;;;;5042313;28;20216;-74
2021/07/31 11:58:18;;;;;;;2.40;1.80;;;25.80;99.90;27.40;96323.00;;;;5034793;28;20222;-74
2021/07/31 12:01:08;;;;;;;1.80;1.70;;;26.30;99.90;27.30;96324.00;;;;5049167;28;20285;-72
2021/07/31 12:03:58;;;;;;;3.47;1.70;;;26.60;99.90;27.50;96315.00;;;;5048317;28;20204;-74
2021/07/31 12:06:48;;;;;;;2.40;1.93;;;26.80;99.90;27.70;96321.00;;;;5039691;28;20709;-74
2021/07/31 12:09:38;;;;;;;2.20;2.00;;;27.10;99.90;27.70;96317.00;;;;5034009;28;20212;-74
2021/07/31 12:12:30;;;;;;;2.40;2.20;;;27.20;99.90;28.30;96286.00;;;;5046463;28;20694;-73
2021/07/31 12:15:21;;;;;;;2.00;1.80;;;27.50;99.90;29.10;96278.00;;;;5039337;28;20215;-73
2021/07/31 12:18:10;;;;;;;5.43;2.25;;;28.00;99.90;29.80;96279.00;;;;5045834;28;20233;-73
2021/07/31 12:20:59;;;;;;;1.90;1.80;;;28.50;99.90;29.80;96281.00;;;;5048466;28;20206;-74
2021/07/31 12:23:48;;;;;;;1.75;1.50;;;28.90;99.90;29.90;96274.00;;;;5035161;28;20224;-73
2021/07/31 12:26:37;;;;;;;1.95;1.73;;;29.20;99.90;30.20;96265.00;;;;5037334;28;20237;-74
2021/07/31 12:29:35;;;;;;;2.30;2.00;;;29.50;98.60;30.30;96278.00;;;;5034811;28;20212;-73
2021/07/31 12:32:27;;;;;;;2.72;2.28;;;29.70;95.80;30.60;96266.00;;;;5034025;28;20577;-73
2021/07/31 12:35:36;;;;;;;1.55;1.45;;;30.00;93.70;30.60;96260.00;;;;5034510;28;20459;-74
2021/07/31 12:38:28;;;;;;;1.80;1.23;;;30.10;90.80;31.60;96262.00;;;;5043695;28;20224;-74
2021/07/31 12:41:16;;;;;;;3.20;1.80;;;30.30;90.80;31.00;96266.00;;;;5027221;28;20212;-74